Time,TemperatureF,DewpointF,PressureIn,WindDirection,WindDirectionDegrees,WindSpeedMPH,WindSpeedGustMPH,Humidity,HourlyPrecipIn,Conditions,Clouds,dailyrainin,SoftwareType,DateUTC
2013-10-14 00:00:00,42.5,40.3,29.56,North,0,0.0,-999.0,91,0.00,,,-99.99,,2013-10-14 08:00:00,
2013-10-14 00:05:00,42.3,40.1,29.56,North,0,0.0,-999.0,91,0.00,,,-99.99,,2013-10-14 08:05:00,
2013-10-14 00:10:00,42.1,40.0,29.56,North,0,0.0,-999.0,92,0.00,,,-99.99,,2013-10-14 08:10:00,
2013-10-14 00:15:00,42.2,40.0,29.56,North,0,0.0,-999.0,92,0.00,,,-99.99,,2013-10-14 08:15:00,
2013-10-14 00:20:00,41.8,39.7,29.56,North,0,0.0,-999.0,92,0.00,,,-99.99,,2013-10-14 08:20:00,
2013-10-14 00:25:00,41.8,39.8,29.56,North,0,0.0,-999.0,92,0.00,,,-99.99,,2013-10-14 08:25:00,
2013-10-14 00:30:00,41.7,39.7,29.56,North,0,0.0,-999.0,92,0.00,,,-99.99,,2013-10-14 08:30:00,
2013-10-14 00:35:00,41.3,39.4,29.56,North,0,0.0,-999.0,92,0.00,,,-99.99,,2013-10-14 08:35:00,
2013-10-14 00:40:00,41.0,39.2,29.56,North,0,0.0,-999.0,93,0.00,,,-99.99,,2013-10-14 08:40:00,
2013-10-14 00:45:00,41.4,39.7,29.56,North,0,0.0,-999.0,93,0.00,,,-99.99,,2013-10-14 08:45:00,
2013-10-14 00:50:00,41.1,39.3,29.56,North,0,0.0,-999.0,93,0.00,,,-99.99,,2013-10-14 08:50:00,
2013-10-14 00:55:00,41.0,39.4,29.56,North,0,0.0,-999.0,93,0.00,,,-99.99,,2013-10-14 08:55:00,
2013-10-14 01:00:00,41.3,39.8,29.58,North,0,0.0,-999.0,94,0.00,,,-99.99,,2013-10-14 09:00:00,
2013-10-14 01:05:00,41.3,39.7,29.58,North,0,0.0,-999.0,93,0.00,,,-99.99,,2013-10-14 09:05:00,
2013-10-14 01:10:00,41.1,39.5,29.58,North,0,0.0,-999.0,93,0.00,,,-99.99,,2013-10-14 09:10:00,
2013-10-14 01:16:00,41.1,39.4,29.58,North,0,0.0,-999.0,93,0.00,,,-99.99,,2013-10-14 09:16:00,
2013-10-14 01:21:00,40.8,39.2,29.58,North,0,0.0,-999.0,94,0.00,,,-99.99,,2013-10-14 09:21:00,
2013-10-14 01:26:00,40.8,39.3,29.58,North,0,0.0,-999.0,94,0.00,,,-99.99,,2013-10-14 09:26:00,
2013-10-14 01:31:00,41.2,39.7,29.58,North,0,0.0,-999.0,94,0.00,,,-99.99,,2013-10-14 09:31:00,
2013-10-14 01:36:00,41.2,39.7,29.58,North,0,0.0,-999.0,94,0.00,,,-99.99,,2013-10-14 09:36:00,
2013-10-14 01:41:00,41.6,40.2,29.58,North,0,0.0,-999.0,94,0.00,,,-99.99,,2013-10-14 09:41:00,
2013-10-14 01:46:00,41.5,40.0,29.58,North,0,0.0,-999.0,94,0.00,,,-99.99,,2013-10-14 09:46:00,
2013-10-14 01:51:00,41.5,40.1,29.58,North,0,0.0,-999.0,94,0.00,,,-99.99,,2013-10-14 09:51:00,
2013-10-14 01:56:00,41.6,40.2,29.58,North,0,0.0,-999.0,94,0.00,,,-99.99,,2013-10-14 09:56:00,
2013-10-14 02:01:00,41.2,39.7,29.62,North,0,0.0,-999.0,94,0.00,,,-99.99,,2013-10-14 10:01:00,
2013-10-14 02:06:00,40.9,39.4,29.62,North,0,0.0,-999.0,94,0.00,,,-99.99,,2013-10-14 10:06:00,
2013-10-14 02:11:00,40.7,39.3,29.62,North,0,0.0,-999.0,94,0.00,,,-99.99,,2013-10-14 10:11:00,
2013-10-14 02:16:00,40.6,39.2,29.62,North,0,0.0,-999.0,94,0.00,,,-99.99,,2013-10-14 10:16:00,
2013-10-14 02:21:00,41.0,39.6,29.62,North,0,0.0,-999.0,94,0.00,,,-99.99,,2013-10-14 10:21:00,
2013-10-14 02:26:00,40.6,39.1,29.62,North,0,0.0,-999.0,94,0.00,,,-99.99,,2013-10-14 10:26:00,
2013-10-14 02:31:00,40.3,39.0,29.62,North,0,0.0,-999.0,94,0.00,,,-99.99,,2013-10-14 10:31:00,
2013-10-14 02:36:00,40.3,39.0,29.62,North,0,0.0,-999.0,94,0.00,,,-99.99,,2013-10-14 10:36:00,
2013-10-14 02:41:00,40.1,38.7,29.62,North,0,0.0,-999.0,94,0.00,,,-99.99,,2013-10-14 10:41:00,
2013-10-14 02:46:00,39.7,38.3,29.62,North,0,0.0,-999.0,94,0.00,,,-99.99,,2013-10-14 10:46:00,
2013-10-14 02:51:00,39.6,38.2,29.62,North,0,0.0,-999.0,94,0.00,,,-99.99,,2013-10-14 10:51:00,
2013-10-14 02:56:00,39.4,38.1,29.62,North,0,0.0,-999.0,95,0.00,,,-99.99,,2013-10-14 10:56:00,
2013-10-14 03:01:00,39.5,38.2,29.64,North,0,0.0,-999.0,95,0.00,,,-99.99,,2013-10-14 11:01:00,
2013-10-14 03:06:00,39.5,38.3,29.64,North,0,0.0,-999.0,95,0.00,,,-99.99,,2013-10-14 11:06:00,
2013-10-14 03:11:00,39.5,38.3,29.64,North,0,0.0,-999.0,95,0.00,,,-99.99,,2013-10-14 11:11:00,
2013-10-14 03:16:00,39.6,38.4,29.64,North,0,0.0,-999.0,95,0.00,,,-99.99,,2013-10-14 11:16:00,
2013-10-14 03:21:00,39.7,38.5,29.64,North,0,0.0,-999.0,95,0.00,,,-99.99,,2013-10-14 11:21:00,
2013-10-14 03:26:00,39.5,38.3,29.64,North,0,0.0,-999.0,95,0.00,,,-99.99,,2013-10-14 11:26:00,
2013-10-14 03:31:00,39.4,38.2,29.64,North,0,0.0,-999.0,95,0.00,,,-99.99,,2013-10-14 11:31:00,
2013-10-14 03:36:00,39.2,38.0,29.64,North,0,0.0,-999.0,95,0.00,,,-99.99,,2013-10-14 11:36:00,
2013-10-14 03:41:00,38.9,37.7,29.64,North,0,0.0,-999.0,95,0.00,,,-99.99,,2013-10-14 11:41:00,
2013-10-14 03:46:00,38.6,37.5,29.64,North,0,0.0,-999.0,95,0.00,,,-99.99,,2013-10-14 11:46:00,
2013-10-14 03:51:00,38.9,37.8,29.64,North,0,0.0,-999.0,95,0.00,,,-99.99,,2013-10-14 11:51:00,
2013-10-14 03:56:00,38.8,37.6,29.64,North,0,0.0,-999.0,95,0.00,,,-99.99,,2013-10-14 11:56:00,
2013-10-14 04:01:00,38.8,37.7,29.67,North,0,0.0,-999.0,95,0.00,,,-99.99,,2013-10-14 12:01:00,
2013-10-14 04:06:00,38.5,37.3,29.67,North,0,0.0,-999.0,95,0.00,,,-99.99,,2013-10-14 12:06:00,
2013-10-14 04:11:00,38.6,37.5,29.67,North,0,0.0,-999.0,95,0.00,,,-99.99,,2013-10-14 12:11:00,
2013-10-14 04:16:00,38.7,37.6,29.67,North,0,0.0,-999.0,95,0.00,,,-99.99,,2013-10-14 12:16:00,
2013-10-14 04:21:00,38.8,37.7,29.67,North,0,0.0,-999.0,95,0.00,,,-99.99,,2013-10-14 12:21:00,
2013-10-14 04:26:00,38.4,37.2,29.67,North,0,0.0,-999.0,95,0.00,,,-99.99,,2013-10-14 12:26:00,
2013-10-14 04:31:00,38.2,37.1,29.67,North,0,0.0,-999.0,95,0.00,,,-99.99,,2013-10-14 12:31:00,
2013-10-14 04:36:00,38.2,37.1,29.67,North,0,0.0,-999.0,95,0.00,,,-99.99,,2013-10-14 12:36:00,
2013-10-14 04:41:00,38.5,37.4,29.67,North,0,0.0,-999.0,95,0.00,,,-99.99,,2013-10-14 12:41:00,
2013-10-14 04:46:00,38.3,37.2,29.67,North,0,0.0,-999.0,95,0.00,,,-99.99,,2013-10-14 12:46:00,
2013-10-14 04:51:00,38.0,36.8,29.67,North,0,0.0,-999.0,95,0.00,,,-99.99,,2013-10-14 12:51:00,
2013-10-14 04:56:00,38.2,37.1,29.67,North,0,0.0,-999.0,95,0.00,,,-99.99,,2013-10-14 12:56:00,
2013-10-14 05:01:00,38.0,36.8,29.69,North,0,0.0,-999.0,95,0.00,,,-99.99,,2013-10-14 13:01:00,
2013-10-14 05:06:00,37.8,36.8,29.69,North,0,0.0,-999.0,95,0.00,,,-99.99,,2013-10-14 13:06:00,
2013-10-14 05:11:00,38.0,37.0,29.69,North,0,0.0,-999.0,95,0.00,,,-99.99,,2013-10-14 13:11:00,
2013-10-14 05:16:00,37.8,36.7,29.69,North,0,0.0,-999.0,95,0.00,,,-99.99,,2013-10-14 13:16:00,
2013-10-14 05:21:00,37.8,36.7,29.69,North,0,0.0,-999.0,95,0.00,,,-99.99,,2013-10-14 13:21:00,
2013-10-14 05:26:00,37.8,36.7,29.69,North,0,0.0,-999.0,95,0.00,,,-99.99,,2013-10-14 13:26:00,
2013-10-14 05:31:00,37.7,36.6,29.69,North,0,0.0,-999.0,95,0.00,,,-99.99,,2013-10-14 13:31:00,
2013-10-14 05:36:00,37.6,36.5,29.69,North,0,0.0,-999.0,95,0.00,,,-99.99,,2013-10-14 13:36:00,
2013-10-14 05:41:00,37.5,36.5,29.69,North,0,0.0,-999.0,96,0.00,,,-99.99,,2013-10-14 13:41:00,
2013-10-14 05:46:00,37.5,36.4,29.69,North,0,0.0,-999.0,95,0.00,,,-99.99,,2013-10-14 13:46:00,
2013-10-14 05:51:00,37.4,36.3,29.69,North,0,0.0,-999.0,95,0.00,,,-99.99,,2013-10-14 13:51:00,
2013-10-14 05:56:00,37.4,36.4,29.69,North,0,0.0,-999.0,96,0.00,,,-99.99,,2013-10-14 13:56:00,
2013-10-14 06:01:00,37.6,36.5,29.72,North,0,0.0,-999.0,95,0.00,,,-99.99,,2013-10-14 14:01:00,
2013-10-14 06:06:00,37.6,36.6,29.72,North,0,0.0,-999.0,96,0.00,,,-99.99,,2013-10-14 14:06:00,
2013-10-14 06:11:00,37.5,36.4,29.72,North,0,0.0,-999.0,96,0.00,,,-99.99,,2013-10-14 14:11:00,
2013-10-14 06:16:00,37.7,36.7,29.72,North,0,0.0,-999.0,96,0.00,,,-99.99,,2013-10-14 14:16:00,
2013-10-14 06:21:00,37.7,36.6,29.72,North,0,0.0,-999.0,96,0.00,,,-99.99,,2013-10-14 14:21:00,
2013-10-14 06:26:00,37.6,36.6,29.72,North,0,0.0,-999.0,96,0.00,,,-99.99,,2013-10-14 14:26:00,
2013-10-14 06:31:00,37.8,36.8,29.72,North,0,0.0,-999.0,96,0.00,,,-99.99,,2013-10-14 14:31:00,
2013-10-14 06:36:00,37.9,36.9,29.72,North,0,0.0,-999.0,96,0.00,,,-99.99,,2013-10-14 14:36:00,
2013-10-14 06:41:00,37.8,36.8,29.72,North,0,0.0,-999.0,96,0.00,,,-99.99,,2013-10-14 14:41:00,
2013-10-14 06:46:00,37.8,36.8,29.72,North,0,0.0,-999.0,96,0.00,,,-99.99,,2013-10-14 14:46:00,
2013-10-14 06:51:00,37.7,36.7,29.72,North,0,0.0,-999.0,96,0.00,,,-99.99,,2013-10-14 14:51:00,
2013-10-14 06:56:00,37.8,36.8,29.72,North,0,0.0,-999.0,96,0.00,,,-99.99,,2013-10-14 14:56:00,
2013-10-14 07:01:00,37.7,36.6,29.74,North,0,0.0,-999.0,96,0.00,,,-99.99,,2013-10-14 15:01:00,
2013-10-14 07:06:00,37.7,36.7,29.74,North,0,0.0,-999.0,96,0.00,,,-99.99,,2013-10-14 15:06:00,
2013-10-14 07:11:00,37.3,36.3,29.74,North,0,0.0,-999.0,95,0.00,,,-99.99,,2013-10-14 15:11:00,
2013-10-14 07:16:00,37.5,36.6,29.74,North,0,0.0,-999.0,96,0.00,,,-99.99,,2013-10-14 15:16:00,
2013-10-14 07:21:00,37.4,36.4,29.74,North,0,0.0,-999.0,95,0.00,,,-99.99,,2013-10-14 15:21:00,
2013-10-14 07:26:00,37.3,36.3,29.74,North,0,0.0,-999.0,96,0.00,,,-99.99,,2013-10-14 15:26:00,
2013-10-14 07:31:00,37.2,36.2,29.74,North,0,0.0,-999.0,96,0.00,,,-99.99,,2013-10-14 15:31:00,
2013-10-14 07:36:00,37.3,36.3,29.74,North,0,0.0,-999.0,96,0.00,,,-99.99,,2013-10-14 15:36:00,
2013-10-14 07:41:00,37.2,36.2,29.74,North,0,0.0,-999.0,96,0.00,,,-99.99,,2013-10-14 15:41:00,
2013-10-14 07:46:00,37.4,36.5,29.74,North,0,0.0,-999.0,96,0.00,,,-99.99,,2013-10-14 15:46:00,
2013-10-14 07:51:00,37.1,36.1,29.74,North,0,0.0,-999.0,96,0.00,,,-99.99,,2013-10-14 15:51:00,
2013-10-14 07:56:00,37.2,36.3,29.74,North,0,0.0,-999.0,96,0.00,,,-99.99,,2013-10-14 15:56:00,
2013-10-14 08:01:00,37.5,36.5,29.76,North,0,0.0,-999.0,96,0.00,,,-99.99,,2013-10-14 16:01:00,
2013-10-14 08:06:00,37.5,36.6,29.76,North,0,0.0,-999.0,96,0.00,,,-99.99,,2013-10-14 16:06:00,
2013-10-14 08:11:00,37.4,36.4,29.76,North,0,0.0,-999.0,96,0.00,,,-99.99,,2013-10-14 16:11:00,
2013-10-14 08:16:00,37.4,36.4,29.76,North,0,0.0,-999.0,96,0.00,,,-99.99,,2013-10-14 16:16:00,
2013-10-14 08:21:00,37.3,36.4,29.76,North,0,0.0,-999.0,96,0.00,,,-99.99,,2013-10-14 16:21:00,
2013-10-14 08:26:00,37.2,36.2,29.76,North,0,0.0,-999.0,96,0.00,,,-99.99,,2013-10-14 16:26:00,
2013-10-14 08:31:00,37.2,36.2,29.76,North,0,0.0,-999.0,96,0.00,,,-99.99,,2013-10-14 16:31:00,
2013-10-14 08:36:00,37.1,36.1,29.76,North,0,0.0,-999.0,96,0.00,,,-99.99,,2013-10-14 16:36:00,
2013-10-14 08:41:00,37.1,36.1,29.76,North,0,0.0,-999.0,96,0.00,,,-99.99,,2013-10-14 16:41:00,
2013-10-14 08:46:00,37.3,36.4,29.76,North,0,0.0,-999.0,96,0.00,,,-99.99,,2013-10-14 16:46:00,
2013-10-14 08:51:00,37.2,36.3,29.76,North,0,0.0,-999.0,96,0.00,,,-99.99,,2013-10-14 16:51:00,
2013-10-14 08:56:00,37.2,36.2,29.76,North,0,0.0,-999.0,96,0.00,,,-99.99,,2013-10-14 16:56:00,
2013-10-14 09:01:00,37.0,36.0,29.79,North,0,0.0,-999.0,96,0.00,,,-99.99,,2013-10-14 17:01:00,
2013-10-14 09:06:00,37.2,36.3,29.79,North,0,0.0,-999.0,96,0.00,,,-99.99,,2013-10-14 17:06:00,
2013-10-14 09:11:00,37.2,36.2,29.79,North,0,0.0,-999.0,96,0.00,,,-99.99,,2013-10-14 17:11:00,
2013-10-14 09:16:00,37.3,36.4,29.79,North,0,0.0,-999.0,96,0.00,,,-99.99,,2013-10-14 17:16:00,
2013-10-14 09:21:00,37.3,36.3,29.79,North,0,0.0,-999.0,96,0.00,,,-99.99,,2013-10-14 17:21:00,
2013-10-14 09:26:00,37.3,36.3,29.79,North,0,0.0,-999.0,96,0.00,,,-99.99,,2013-10-14 17:26:00,
2013-10-14 09:31:00,37.4,36.4,29.79,North,0,0.0,-999.0,96,0.00,,,-99.99,,2013-10-14 17:31:00,
2013-10-14 09:36:00,37.3,36.4,29.79,North,0,0.0,-999.0,96,0.00,,,-99.99,,2013-10-14 17:36:00,
2013-10-14 09:41:00,37.7,36.8,29.79,North,0,0.0,-999.0,96,0.00,,,-99.99,,2013-10-14 17:41:00,
2013-10-14 09:46:00,38.2,37.4,29.79,North,0,0.0,-999.0,96,0.00,,,-99.99,,2013-10-14 17:46:00,
2013-10-14 09:51:00,38.8,38.0,29.79,North,0,0.0,-999.0,96,0.00,,,-99.99,,2013-10-14 17:51:00,
2013-10-14 09:56:00,39.4,38.5,29.79,North,0,0.0,-999.0,96,0.00,,,-99.99,,2013-10-14 17:56:00,
2013-10-14 10:01:00,39.4,38.5,29.82,North,0,0.0,-999.0,96,0.00,,,-99.99,,2013-10-14 18:01:00,
2013-10-14 10:06:00,39.5,38.6,29.82,North,0,0.0,-999.0,96,0.00,,,-99.99,,2013-10-14 18:06:00,
2013-10-14 10:11:00,39.3,38.3,29.82,North,0,0.0,-999.0,96,0.00,,,-99.99,,2013-10-14 18:11:00,
2013-10-14 10:16:00,39.8,39.0,29.82,North,0,0.0,-999.0,96,0.00,,,-99.99,,2013-10-14 18:16:00,
2013-10-14 10:21:00,40.0,39.0,29.82,North,0,0.0,-999.0,96,0.00,,,-99.99,,2013-10-14 18:21:00,
2013-10-14 10:26:00,40.5,39.7,29.82,North,0,0.0,-999.0,96,0.00,,,-99.99,,2013-10-14 18:26:00,
2013-10-14 10:31:00,41.9,41.2,29.82,North,0,0.0,-999.0,97,0.00,,,-99.99,,2013-10-14 18:31:00,
2013-10-14 10:36:00,43.7,42.9,29.82,North,0,0.0,-999.0,97,0.00,,,-99.99,,2013-10-14 18:36:00,
2013-10-14 10:41:00,42.7,41.4,29.82,North,0,0.0,-999.0,94,0.00,,,-99.99,,2013-10-14 18:41:00,
2013-10-14 10:46:00,44.2,42.9,29.82,North,0,0.0,-999.0,95,0.00,,,-99.99,,2013-10-14 18:46:00,
2013-10-14 10:51:00,44.5,42.5,29.82,North,0,0.0,-999.0,92,0.00,,,-99.99,,2013-10-14 18:51:00,
2013-10-14 10:56:00,45.6,43.3,29.82,North,0,0.0,-999.0,91,0.00,,,-99.99,,2013-10-14 18:56:00,
2013-10-14 11:01:00,46.0,42.1,29.83,North,0,0.0,-999.0,86,0.00,,,-99.99,,2013-10-14 19:01:00,
2013-10-14 11:06:00,46.3,42.3,29.83,North,0,0.0,-999.0,85,0.00,,,-99.99,,2013-10-14 19:06:00,
2013-10-14 11:11:00,45.6,41.2,29.83,North,0,0.0,-999.0,84,0.00,,,-99.99,,2013-10-14 19:11:00,
2013-10-14 11:16:00,45.1,41.2,29.83,North,0,0.0,-999.0,85,0.00,,,-99.99,,2013-10-14 19:16:00,
2013-10-14 11:21:00,44.7,40.0,29.83,North,0,0.0,-999.0,83,0.00,,,-99.99,,2013-10-14 19:21:00,
2013-10-14 11:26:00,45.3,40.0,29.83,North,0,0.0,-999.0,81,0.00,,,-99.99,,2013-10-14 19:26:00,
2013-10-14 11:31:00,45.8,39.5,29.83,North,0,0.0,-999.0,78,0.00,,,-99.99,,2013-10-14 19:31:00,
2013-10-14 11:36:00,46.7,38.4,29.83,North,0,0.0,-999.0,72,0.00,,,-99.99,,2013-10-14 19:36:00,
2013-10-14 11:41:00,47.5,40.0,29.83,North,0,0.0,-999.0,75,0.00,,,-99.99,,2013-10-14 19:41:00,
2013-10-14 11:46:00,46.6,37.9,29.83,North,0,0.0,-999.0,71,0.00,,,-99.99,,2013-10-14 19:46:00,
2013-10-14 11:51:00,46.3,39.8,29.83,North,0,0.0,-999.0,77,0.00,,,-99.99,,2013-10-14 19:51:00,
2013-10-14 11:56:00,46.8,40.2,29.83,North,0,0.0,-999.0,77,0.00,,,-99.99,,2013-10-14 19:56:00,
2013-10-14 12:01:00,47.8,40.1,29.85,North,0,0.0,-999.0,74,0.00,,,-99.99,,2013-10-14 20:01:00,
2013-10-14 12:06:00,48.4,39.4,29.85,North,0,0.0,-999.0,70,0.00,,,-99.99,,2013-10-14 20:06:00,
2013-10-14 12:11:00,49.5,38.3,29.85,North,0,0.0,-999.0,65,0.00,,,-99.99,,2013-10-14 20:11:00,
2013-10-14 12:16:00,47.8,37.1,29.85,North,0,0.0,-999.0,66,0.00,,,-99.99,,2013-10-14 20:16:00,
2013-10-14 12:21:00,48.0,37.8,29.85,North,0,0.0,-999.0,67,0.00,,,-99.99,,2013-10-14 20:21:00,
2013-10-14 12:26:00,47.7,38.8,29.85,North,0,0.0,-999.0,70,0.00,,,-99.99,,2013-10-14 20:26:00,
2013-10-14 12:31:00,47.9,39.2,29.85,North,0,0.0,-999.0,71,0.00,,,-99.99,,2013-10-14 20:31:00,
2013-10-14 12:36:00,47.9,39.3,29.85,North,0,0.0,-999.0,72,0.00,,,-99.99,,2013-10-14 20:36:00,
2013-10-14 12:41:00,49.0,40.9,29.85,North,0,0.0,-999.0,73,0.00,,,-99.99,,2013-10-14 20:41:00,
2013-10-14 12:46:00,48.1,40.4,29.85,North,0,0.0,-999.0,74,0.00,,,-99.99,,2013-10-14 20:46:00,
2013-10-14 12:51:00,48.0,39.6,29.85,North,0,0.0,-999.0,72,0.00,,,-99.99,,2013-10-14 20:51:00,
2013-10-14 12:56:00,47.7,39.7,29.85,North,0,0.0,-999.0,73,0.00,,,-99.99,,2013-10-14 20:56:00,
2013-10-14 13:01:00,48.0,40.1,29.85,North,0,0.0,-999.0,73,0.00,,,-99.99,,2013-10-14 21:01:00,
2013-10-14 13:04:00,47.8,40.0,29.85,North,0,0.0,-999.0,74,0.00,,,-99.99,,2013-10-14 21:04:00,
2013-10-14 13:09:00,48.0,39.9,29.85,North,0,0.0,-999.0,73,0.00,,,-99.99,,2013-10-14 21:09:00,
2013-10-14 13:14:00,48.5,40.3,29.85,North,0,0.0,-999.0,73,0.00,,,-99.99,,2013-10-14 21:14:00,
2013-10-14 13:19:00,48.1,39.9,29.85,North,0,0.0,-999.0,73,0.00,,,-99.99,,2013-10-14 21:19:00,
2013-10-14 13:24:00,48.1,40.0,29.85,North,0,0.0,-999.0,73,0.00,,,-99.99,,2013-10-14 21:24:00,
2013-10-14 13:29:00,48.4,40.5,29.85,North,0,0.0,-999.0,74,0.00,,,-99.99,,2013-10-14 21:29:00,
2013-10-14 13:34:00,48.8,41.0,29.85,North,0,0.0,-999.0,74,0.00,,,-99.99,,2013-10-14 21:34:00,
2013-10-14 13:39:00,48.7,40.8,29.85,North,0,0.0,-999.0,73,0.00,,,-99.99,,2013-10-14 21:39:00,
2013-10-14 13:44:00,48.5,41.0,29.85,North,0,0.0,-999.0,75,0.00,,,-99.99,,2013-10-14 21:44:00,
2013-10-14 13:49:00,47.8,40.4,29.85,North,0,0.0,-999.0,75,0.00,,,-99.99,,2013-10-14 21:49:00,
2013-10-14 13:54:00,48.0,41.2,29.85,North,0,0.0,-999.0,77,0.00,,,-99.99,,2013-10-14 21:54:00,
2013-10-14 13:59:00,49.1,41.5,29.85,North,0,0.0,-999.0,74,0.00,,,-99.99,,2013-10-14 21:59:00,
2013-10-14 14:04:00,49.3,40.8,29.86,North,0,0.0,-999.0,72,0.00,,,-99.99,,2013-10-14 22:04:00,
2013-10-14 14:09:00,49.5,41.0,29.86,North,0,0.0,-999.0,72,0.00,,,-99.99,,2013-10-14 22:09:00,
2013-10-14 14:14:00,49.9,41.5,29.86,North,0,0.0,-999.0,72,0.00,,,-99.99,,2013-10-14 22:14:00,
2013-10-14 14:19:00,50.2,41.0,29.86,North,0,0.0,-999.0,70,0.00,,,-99.99,,2013-10-14 22:19:00,
2013-10-14 14:24:00,50.8,41.8,29.86,North,0,0.0,-999.0,71,0.00,,,-99.99,,2013-10-14 22:24:00,
2013-10-14 14:29:00,51.9,41.5,29.86,North,0,0.0,-999.0,67,0.00,,,-99.99,,2013-10-14 22:29:00,
2013-10-14 14:34:00,51.4,40.9,29.86,North,0,0.0,-999.0,67,0.00,,,-99.99,,2013-10-14 22:34:00,
2013-10-14 14:39:00,51.0,41.0,29.86,North,0,0.0,-999.0,68,0.00,,,-99.99,,2013-10-14 22:39:00,
2013-10-14 14:44:00,51.1,41.0,29.86,North,0,0.0,-999.0,68,0.00,,,-99.99,,2013-10-14 22:44:00,
2013-10-14 14:49:00,51.1,40.4,29.86,North,0,0.0,-999.0,66,0.00,,,-99.99,,2013-10-14 22:49:00,
2013-10-14 14:54:00,51.1,40.4,29.86,North,0,0.0,-999.0,66,0.00,,,-99.99,,2013-10-14 22:54:00,
2013-10-14 14:59:00,51.6,41.1,29.86,North,0,0.0,-999.0,67,0.00,,,-99.99,,2013-10-14 22:59:00,
2013-10-14 15:04:00,51.6,41.2,29.86,North,0,0.0,-999.0,67,0.00,,,-99.99,,2013-10-14 23:04:00,
2013-10-14 15:09:00,51.0,40.2,29.86,North,0,0.0,-999.0,66,0.00,,,-99.99,,2013-10-14 23:09:00,
2013-10-14 15:14:00,50.4,40.1,29.86,North,0,0.0,-999.0,67,0.00,,,-99.99,,2013-10-14 23:14:00,
2013-10-14 15:19:00,50.3,40.6,29.86,North,0,0.0,-999.0,69,0.00,,,-99.99,,2013-10-14 23:19:00,
2013-10-14 15:24:00,50.4,40.5,29.86,North,0,0.0,-999.0,68,0.00,,,-99.99,,2013-10-14 23:24:00,
2013-10-14 15:29:00,50.3,40.6,29.86,North,0,0.0,-999.0,69,0.00,,,-99.99,,2013-10-14 23:29:00,
2013-10-14 15:34:00,50.5,40.4,29.86,North,0,0.0,-999.0,68,0.00,,,-99.99,,2013-10-14 23:34:00,
2013-10-14 15:39:00,50.7,40.2,29.86,North,0,0.0,-999.0,67,0.00,,,-99.99,,2013-10-14 23:39:00,
2013-10-14 15:44:00,50.7,40.5,29.86,North,0,0.0,-999.0,67,0.00,,,-99.99,,2013-10-14 23:44:00,
2013-10-14 15:49:00,50.2,40.8,29.86,North,0,0.0,-999.0,70,0.00,,,-99.99,,2013-10-14 23:49:00,
2013-10-14 15:54:00,50.1,40.7,29.86,North,0,0.0,-999.0,69,0.00,,,-99.99,,2013-10-14 23:54:00,
2013-10-14 15:59:00,50.0,40.2,29.86,North,0,0.0,-999.0,68,0.00,,,-99.99,,2013-10-14 23:59:00,
2013-10-14 16:04:00,49.6,40.7,29.88,North,0,0.0,-999.0,71,0.00,,,-99.99,,2013-10-15 00:04:00,
2013-10-14 16:09:00,49.7,40.8,29.88,North,0,0.0,-999.0,71,0.00,,,-99.99,,2013-10-15 00:09:00,
2013-10-14 16:14:00,49.4,40.2,29.88,North,0,0.0,-999.0,70,0.00,,,-99.99,,2013-10-15 00:14:00,
2013-10-14 16:19:00,49.1,39.7,29.88,North,0,0.0,-999.0,69,0.00,,,-99.99,,2013-10-15 00:19:00,
2013-10-14 16:24:00,49.3,40.1,29.88,North,0,0.0,-999.0,70,0.00,,,-99.99,,2013-10-15 00:24:00,
2013-10-14 16:29:00,49.0,39.9,29.88,North,0,0.0,-999.0,70,0.00,,,-99.99,,2013-10-15 00:29:00,
2013-10-14 16:34:00,48.6,40.3,29.88,North,0,0.0,-999.0,73,0.00,,,-99.99,,2013-10-15 00:34:00,
2013-10-14 16:39:00,48.9,40.0,29.88,North,0,0.0,-999.0,71,0.00,,,-99.99,,2013-10-15 00:39:00,
2013-10-14 16:44:00,48.6,39.7,29.88,North,0,0.0,-999.0,71,0.00,,,-99.99,,2013-10-15 00:44:00,
2013-10-14 16:49:00,48.6,40.3,29.88,North,0,0.0,-999.0,72,0.00,,,-99.99,,2013-10-15 00:49:00,
2013-10-14 16:54:00,48.4,39.9,29.88,North,0,0.0,-999.0,72,0.00,,,-99.99,,2013-10-15 00:54:00,
2013-10-14 16:59:00,48.1,39.4,29.88,North,0,0.0,-999.0,71,0.00,,,-99.99,,2013-10-15 00:59:00,
2013-10-14 17:04:00,48.0,40.0,29.90,North,0,0.0,-999.0,73,0.00,,,-99.99,,2013-10-15 01:04:00,
2013-10-14 17:09:00,47.5,40.3,29.90,North,0,0.0,-999.0,76,0.00,,,-99.99,,2013-10-15 01:09:00,
2013-10-14 17:14:00,46.8,40.5,29.90,North,0,0.0,-999.0,78,0.00,,,-99.99,,2013-10-15 01:14:00,
2013-10-14 17:19:00,46.1,40.5,29.90,North,0,0.0,-999.0,80,0.00,,,-99.99,,2013-10-15 01:19:00,
2013-10-14 17:24:00,45.2,40.2,29.90,North,0,0.0,-999.0,82,0.00,,,-99.99,,2013-10-15 01:24:00,
2013-10-14 17:29:00,45.5,40.6,29.90,North,0,0.0,-999.0,82,0.00,,,-99.99,,2013-10-15 01:29:00,
2013-10-14 17:34:00,45.8,40.8,29.90,North,0,0.0,-999.0,82,0.00,,,-99.99,,2013-10-15 01:34:00,
2013-10-14 17:39:00,46.3,41.2,29.90,North,0,0.0,-999.0,82,0.00,,,-99.99,,2013-10-15 01:39:00,
2013-10-14 17:44:00,46.0,40.6,29.90,North,0,0.0,-999.0,81,0.00,,,-99.99,,2013-10-15 01:44:00,
2013-10-14 17:49:00,45.9,41.0,29.90,North,0,0.0,-999.0,82,0.00,,,-99.99,,2013-10-15 01:49:00,
2013-10-14 17:54:00,46.1,41.0,29.90,North,0,0.0,-999.0,82,0.00,,,-99.99,,2013-10-15 01:54:00,
2013-10-14 17:59:00,45.9,40.3,29.90,North,0,0.0,-999.0,80,0.00,,,-99.99,,2013-10-15 01:59:00,
2013-10-14 18:04:00,46.0,40.1,29.90,North,0,0.0,-999.0,79,0.00,,,-99.99,,2013-10-15 02:04:00,
2013-10-14 18:09:00,46.3,40.5,29.90,North,0,0.0,-999.0,79,0.00,,,-99.99,,2013-10-15 02:09:00,
2013-10-14 18:14:00,46.1,40.2,29.90,North,0,0.0,-999.0,79,0.00,,,-99.99,,2013-10-15 02:14:00,
2013-10-14 18:19:00,46.5,40.3,29.90,North,0,0.0,-999.0,78,0.00,,,-99.99,,2013-10-15 02:19:00,
2013-10-14 18:24:00,46.6,39.9,29.90,North,0,0.0,-999.0,77,0.00,,,-99.99,,2013-10-15 02:24:00,
2013-10-14 18:29:00,46.7,39.9,29.90,North,0,0.0,-999.0,77,0.00,,,-99.99,,2013-10-15 02:29:00,
2013-10-14 18:34:00,46.8,40.0,29.90,North,0,0.0,-999.0,76,0.00,,,-99.99,,2013-10-15 02:34:00,
2013-10-14 18:39:00,46.8,39.8,29.90,North,0,0.0,-999.0,76,0.00,,,-99.99,,2013-10-15 02:39:00,
2013-10-14 18:44:00,46.5,39.5,29.90,North,0,0.0,-999.0,76,0.00,,,-99.99,,2013-10-15 02:44:00,
2013-10-14 18:49:00,46.3,40.0,29.90,North,0,0.0,-999.0,78,0.00,,,-99.99,,2013-10-15 02:49:00,
2013-10-14 18:54:00,46.5,40.2,29.90,North,0,0.0,-999.0,78,0.00,,,-99.99,,2013-10-15 02:54:00,
2013-10-14 18:59:00,46.5,40.2,29.90,North,0,0.0,-999.0,78,0.00,,,-99.99,,2013-10-15 02:59:00,
2013-10-14 19:04:00,46.0,39.9,29.89,North,0,0.0,-999.0,79,0.00,,,-99.99,,2013-10-15 03:04:00,
2013-10-14 19:09:00,45.7,40.2,29.89,North,0,0.0,-999.0,80,0.00,,,-99.99,,2013-10-15 03:09:00,
2013-10-14 19:14:00,45.6,40.3,29.89,North,0,0.0,-999.0,81,0.00,,,-99.99,,2013-10-15 03:14:00,
2013-10-14 19:19:00,45.4,40.5,29.89,North,0,0.0,-999.0,82,0.00,,,-99.99,,2013-10-15 03:19:00,
2013-10-14 19:24:00,45.4,40.4,29.89,North,0,0.0,-999.0,82,0.00,,,-99.99,,2013-10-15 03:24:00,
2013-10-14 19:29:00,45.2,40.5,29.89,North,0,0.0,-999.0,83,0.00,,,-99.99,,2013-10-15 03:29:00,
2013-10-14 19:34:00,45.4,40.2,29.89,North,0,0.0,-999.0,81,0.00,,,-99.99,,2013-10-15 03:34:00,
2013-10-14 19:39:00,45.4,40.5,29.89,North,0,0.0,-999.0,82,0.00,,,-99.99,,2013-10-15 03:39:00,
2013-10-14 19:44:00,45.3,40.4,29.89,North,0,0.0,-999.0,82,0.00,,,-99.99,,2013-10-15 03:44:00,
2013-10-14 19:49:00,45.2,40.2,29.89,North,0,0.0,-999.0,82,0.00,,,-99.99,,2013-10-15 03:49:00,
2013-10-14 19:54:00,45.3,40.2,29.89,North,0,0.0,-999.0,82,0.00,,,-99.99,,2013-10-15 03:54:00,
2013-10-14 19:59:00,45.2,40.2,29.89,North,0,0.0,-999.0,82,0.00,,,-99.99,,2013-10-15 03:59:00,
2013-10-14 20:01:00,45.2,39.9,29.92,North,0,0.0,-999.0,81,0.00,,,-99.99,,2013-10-15 04:01:00,
2013-10-14 20:02:00,45.3,40.0,29.92,North,0,0.0,-999.0,81,0.00,,,-99.99,,2013-10-15 04:02:00,
2013-10-14 20:03:00,45.4,40.2,29.92,North,0,0.0,-999.0,82,0.00,,,-99.99,,2013-10-15 04:03:00,
2013-10-14 20:04:00,45.4,40.3,29.92,North,0,0.0,-999.0,82,0.00,,,-99.99,,2013-10-15 04:04:00,
2013-10-14 20:09:00,45.2,39.9,29.92,North,0,0.0,-999.0,81,0.00,,,-99.99,,2013-10-15 04:09:00,
2013-10-14 20:11:00,45.3,40.0,29.92,North,0,0.0,-999.0,81,0.00,,,-99.99,,2013-10-15 04:11:00,
2013-10-14 20:16:00,45.2,39.6,29.92,North,0,0.0,-999.0,80,0.00,,,-99.99,,2013-10-15 04:16:00,
2013-10-14 20:19:00,45.4,40.2,29.92,North,0,0.0,-999.0,81,0.00,,,-99.99,,2013-10-15 04:19:00,
2013-10-14 20:24:00,45.5,40.0,29.92,North,0,0.0,-999.0,80,0.00,,,-99.99,,2013-10-15 04:24:00,
2013-10-14 20:29:00,45.5,40.0,29.92,North,0,0.0,-999.0,81,0.00,,,-99.99,,2013-10-15 04:29:00,
2013-10-14 20:34:00,45.5,40.2,29.92,North,0,0.0,-999.0,81,0.00,,,-99.99,,2013-10-15 04:34:00,
2013-10-14 20:39:00,45.5,40.0,29.92,North,0,0.0,-999.0,80,0.00,,,-99.99,,2013-10-15 04:39:00,
2013-10-14 20:44:00,45.7,40.2,29.92,North,0,0.0,-999.0,80,0.00,,,-99.99,,2013-10-15 04:44:00,
2013-10-14 20:49:00,45.5,40.0,29.92,North,0,0.0,-999.0,80,0.00,,,-99.99,,2013-10-15 04:49:00,
2013-10-14 20:54:00,45.6,40.1,29.92,North,0,0.0,-999.0,80,0.00,,,-99.99,,2013-10-15 04:54:00,
2013-10-14 20:59:00,45.5,40.2,29.92,North,0,0.0,-999.0,81,0.00,,,-99.99,,2013-10-15 04:59:00,
2013-10-14 21:04:00,45.5,40.2,29.93,North,0,0.0,-999.0,81,0.00,,,-99.99,,2013-10-15 05:04:00,
2013-10-14 21:09:00,45.4,40.2,29.93,North,0,0.0,-999.0,81,0.00,,,-99.99,,2013-10-15 05:09:00,
2013-10-14 21:14:00,45.4,40.2,29.93,North,0,0.0,-999.0,81,0.00,,,-99.99,,2013-10-15 05:14:00,
2013-10-14 21:19:00,45.4,40.3,29.93,North,0,0.0,-999.0,82,0.00,,,-99.99,,2013-10-15 05:19:00,
2013-10-14 21:24:00,45.4,40.5,29.93,North,0,0.0,-999.0,82,0.00,,,-99.99,,2013-10-15 05:24:00,
2013-10-14 21:29:00,45.3,40.5,29.93,North,0,0.0,-999.0,82,0.00,,,-99.99,,2013-10-15 05:29:00,
2013-10-14 21:34:00,45.2,40.5,29.93,North,0,0.0,-999.0,83,0.00,,,-99.99,,2013-10-15 05:34:00,
2013-10-14 21:39:00,45.4,40.8,29.93,North,0,0.0,-999.0,83,0.00,,,-99.99,,2013-10-15 05:39:00,
2013-10-14 21:44:00,45.4,40.8,29.93,North,0,0.0,-999.0,83,0.00,,,-99.99,,2013-10-15 05:44:00,
2013-10-14 21:49:00,45.3,41.0,29.93,North,0,0.0,-999.0,84,0.00,,,-99.99,,2013-10-15 05:49:00,
2013-10-14 21:54:00,45.2,41.2,29.93,North,0,0.0,-999.0,85,0.00,,,-99.99,,2013-10-15 05:54:00,
2013-10-14 21:59:00,45.2,41.3,29.93,North,0,0.0,-999.0,86,0.00,,,-99.99,,2013-10-15 05:59:00,
2013-10-14 22:04:00,45.2,41.4,29.94,North,0,0.0,-999.0,86,0.00,,,-99.99,,2013-10-15 06:04:00,
2013-10-14 22:09:00,45.6,41.9,29.94,North,0,0.0,-999.0,86,0.00,,,-99.99,,2013-10-15 06:09:00,
2013-10-14 22:14:00,45.9,41.9,29.94,North,0,0.0,-999.0,85,0.00,,,-99.99,,2013-10-15 06:14:00,
2013-10-14 22:19:00,46.2,41.8,29.94,North,0,0.0,-999.0,84,0.00,,,-99.99,,2013-10-15 06:19:00,
2013-10-14 22:24:00,45.9,41.6,29.94,North,0,0.0,-999.0,84,0.00,,,-99.99,,2013-10-15 06:24:00,
2013-10-14 22:29:00,46.0,41.5,29.94,North,0,0.0,-999.0,84,0.00,,,-99.99,,2013-10-15 06:29:00,
2013-10-14 22:34:00,45.7,41.9,29.94,North,0,0.0,-999.0,86,0.00,,,-99.99,,2013-10-15 06:34:00,
2013-10-14 22:39:00,45.9,42.2,29.94,North,0,0.0,-999.0,87,0.00,,,-99.99,,2013-10-15 06:39:00,
2013-10-14 22:44:00,45.7,42.3,29.94,North,0,0.0,-999.0,87,0.00,,,-99.99,,2013-10-15 06:44:00,
2013-10-14 22:49:00,46.0,42.6,29.94,North,0,0.0,-999.0,87,0.00,,,-99.99,,2013-10-15 06:49:00,
2013-10-14 22:54:00,46.0,42.9,29.94,North,0,0.0,-999.0,88,0.00,,,-99.99,,2013-10-15 06:54:00,
2013-10-14 22:59:00,46.1,43.0,29.94,North,0,0.0,-999.0,88,0.00,,,-99.99,,2013-10-15 06:59:00,
2013-10-14 23:04:00,46.1,43.1,29.95,North,0,0.0,-999.0,89,0.00,,,-99.99,,2013-10-15 07:04:00,
2013-10-14 23:09:00,46.0,43.1,29.95,North,0,0.0,-999.0,89,0.00,,,-99.99,,2013-10-15 07:09:00,
2013-10-14 23:14:00,46.0,43.1,29.95,North,0,0.0,-999.0,89,0.00,,,-99.99,,2013-10-15 07:14:00,
2013-10-14 23:19:00,46.0,43.0,29.95,North,0,0.0,-999.0,89,0.00,,,-99.99,,2013-10-15 07:19:00,
2013-10-14 23:24:00,46.4,43.2,29.95,North,0,0.0,-999.0,88,0.00,,,-99.99,,2013-10-15 07:24:00,
2013-10-14 23:29:00,46.7,43.3,29.95,North,0,0.0,-999.0,87,0.00,,,-99.99,,2013-10-15 07:29:00,
2013-10-14 23:34:00,46.5,43.1,29.95,North,0,0.0,-999.0,88,0.00,,,-99.99,,2013-10-15 07:34:00,
2013-10-14 23:39:00,46.7,43.3,29.95,North,0,0.0,-999.0,87,0.00,,,-99.99,,2013-10-15 07:39:00,
2013-10-14 23:44:00,46.7,43.5,29.95,North,0,0.0,-999.0,88,0.00,,,-99.99,,2013-10-15 07:44:00,
2013-10-14 23:49:00,46.3,43.2,29.95,North,0,0.0,-999.0,88,0.00,,,-99.99,,2013-10-15 07:49:00,
2013-10-14 23:54:00,46.3,43.4,29.95,North,0,0.0,-999.0,89,0.00,,,-99.99,,2013-10-15 07:54:00,
2013-10-14 23:59:00,46.3,43.6,29.95,North,0,0.0,-999.0,89,0.00,,,-99.99,,2013-10-15 07:59:00,